sensor_id;sensor_type;location;lat;lon;timestamp;pressure;altitude;pressure_sealevel;temperature;humidity
42169;BME280;27838;43.858;25.974;2023-02-28T00:01:14;102053.47;;;7.67;68.39
42169;BME280;27838;43.858;25.974;2023-02-28T00:03:40;102041.72;;;7.51;68.14
42169;BME280;27838;43.858;25.974;2023-02-28T00:06:07;102043.56;;;7.55;68.17
42169;BME280;27838;43.858;25.974;2023-02-28T00:08:36;102046.22;;;7.57;68.61
42169;BME280;27838;43.858;25.974;2023-02-28T00:11:06;102054.00;;;7.57;68.37
42169;BME280;27838;43.858;25.974;2023-02-28T00:13:35;102049.00;;;7.63;68.13
42169;BME280;27838;43.858;25.974;2023-02-28T00:16:04;102064.50;;;7.62;68.39
42169;BME280;27838;43.858;25.974;2023-02-28T00:18:32;102069.63;;;7.59;68.28
42169;BME280;27838;43.858;25.974;2023-02-28T00:20:59;102064.28;;;7.54;68.98
42169;BME280;27838;43.858;25.974;2023-02-28T00:23:26;102085.28;;;7.62;68.87
42169;BME280;27838;43.858;25.974;2023-02-28T00:25:53;102068.06;;;7.64;68.39
42169;BME280;27838;43.858;25.974;2023-02-28T00:28:20;102065.19;;;7.56;68.76
42169;BME280;27838;43.858;25.974;2023-02-28T00:30:47;102064.44;;;7.59;68.80
42169;BME280;27838;43.858;25.974;2023-02-28T00:33:14;102067.97;;;7.61;69.23
42169;BME280;27838;43.858;25.974;2023-02-28T00:35:40;102072.47;;;7.66;68.93
42169;BME280;27838;43.858;25.974;2023-02-28T00:38:07;102071.69;;;7.69;68.93
42169;BME280;27838;43.858;25.974;2023-02-28T00:40:34;102076.91;;;7.70;68.13
42169;BME280;27838;43.858;25.974;2023-02-28T00:43:00;102077.91;;;7.74;68.00
42169;BME280;27838;43.858;25.974;2023-02-28T00:45:27;102084.28;;;7.84;68.04
42169;BME280;27838;43.858;25.974;2023-02-28T00:47:53;102080.25;;;7.92;67.69
42169;BME280;27838;43.858;25.974;2023-02-28T00:50:20;102086.59;;;8.02;67.36
42169;BME280;27838;43.858;25.974;2023-02-28T00:52:47;102084.97;;;8.05;67.01
42169;BME280;27838;43.858;25.974;2023-02-28T00:55:14;102090.16;;;8.05;66.71
42169;BME280;27838;43.858;25.974;2023-02-28T00:57:41;102095.19;;;7.99;66.73
42169;BME280;27838;43.858;25.974;2023-02-28T01:00:08;102089.06;;;7.97;66.64
42169;BME280;27838;43.858;25.974;2023-02-28T01:02:34;102098.53;;;7.97;67.09
42169;BME280;27838;43.858;25.974;2023-02-28T01:05:01;102098.75;;;8.03;66.57
42169;BME280;27838;43.858;25.974;2023-02-28T01:07:28;102092.69;;;8.02;66.39
42169;BME280;27838;43.858;25.974;2023-02-28T01:09:54;102096.44;;;7.85;66.84
42169;BME280;27838;43.858;25.974;2023-02-28T01:12:21;102084.81;;;7.73;66.38
42169;BME280;27838;43.858;25.974;2023-02-28T01:14:47;102087.69;;;7.81;66.66
42169;BME280;27838;43.858;25.974;2023-02-28T01:17:14;102096.22;;;7.79;67.20
42169;BME280;27838;43.858;25.974;2023-02-28T01:19:40;102091.78;;;7.74;67.25
42169;BME280;27838;43.858;25.974;2023-02-28T01:22:07;102102.16;;;7.74;67.22
42169;BME280;27838;43.858;25.974;2023-02-28T01:24:33;102108.13;;;7.72;67.27
42169;BME280;27838;43.858;25.974;2023-02-28T01:27:00;102106.44;;;7.74;67.78
42169;BME280;27838;43.858;25.974;2023-02-28T01:29:26;102109.78;;;7.70;67.50
42169;BME280;27838;43.858;25.974;2023-02-28T01:31:53;102116.00;;;7.75;67.21
42169;BME280;27838;43.858;25.974;2023-02-28T01:34:20;102118.66;;;7.77;67.20
42169;BME280;27838;43.858;25.974;2023-02-28T01:36:46;102114.09;;;7.69;66.94
42169;BME280;27838;43.858;25.974;2023-02-28T01:39:13;102105.28;;;7.64;67.63
42169;BME280;27838;43.858;25.974;2023-02-28T01:41:39;102094.47;;;7.52;67.71
42169;BME280;27838;43.858;25.974;2023-02-28T01:44:55;102128.16;;;7.50;67.11
42169;BME280;27838;43.858;25.974;2023-02-28T01:46:53;102151.81;;;7.60;67.27
42169;BME280;27838;43.858;25.974;2023-02-28T01:49:20;102146.06;;;7.68;66.83
42169;BME280;27838;43.858;25.974;2023-02-28T01:51:49;102146.53;;;7.82;66.17
42169;BME280;27838;43.858;25.974;2023-02-28T01:54:21;102161.78;;;7.97;66.98
42169;BME280;27838;43.858;25.974;2023-02-28T01:57:05;102170.66;;;8.05;66.00
42169;BME280;27838;43.858;25.974;2023-02-28T01:59:43;102171.00;;;8.15;66.61
42169;BME280;27838;43.858;25.974;2023-02-28T02:02:14;102165.69;;;8.11;65.49
42169;BME280;27838;43.858;25.974;2023-02-28T02:04:55;102162.22;;;8.11;65.62
42169;BME280;27838;43.858;25.974;2023-02-28T02:07:25;102156.75;;;8.03;64.94
42169;BME280;27838;43.858;25.974;2023-02-28T02:10:25;102149.72;;;7.99;64.88
42169;BME280;27838;43.858;25.974;2023-02-28T02:15:44;102124.59;;;7.72;65.88
42169;BME280;27838;43.858;25.974;2023-02-28T02:18:29;102100.72;;;7.57;66.53
42169;BME280;27838;43.858;25.974;2023-02-28T02:26:55;102101.28;;;7.24;67.79
42169;BME280;27838;43.858;25.974;2023-02-28T02:29:40;102110.78;;;7.24;67.74
42169;BME280;27838;43.858;25.974;2023-02-28T02:35:15;102139.03;;;7.40;66.97
42169;BME280;27838;43.858;25.974;2023-02-28T02:40:44;102133.72;;;7.37;66.69
42169;BME280;27838;43.858;25.974;2023-02-28T02:43:18;102141.69;;;7.42;67.07
42169;BME280;27838;43.858;25.974;2023-02-28T02:45:57;102140.91;;;7.20;66.64
42169;BME280;27838;43.858;25.974;2023-02-28T02:48:29;102137.47;;;7.21;67.36
42169;BME280;27838;43.858;25.974;2023-02-28T02:51:01;102139.03;;;7.16;67.65
42169;BME280;27838;43.858;25.974;2023-02-28T02:53:33;102141.50;;;7.13;68.62
42169;BME280;27838;43.858;25.974;2023-02-28T02:56:02;102144.06;;;7.11;68.24
42169;BME280;27838;43.858;25.974;2023-02-28T02:58:33;102154.00;;;7.00;68.04
42169;BME280;27838;43.858;25.974;2023-02-28T03:01:01;102153.66;;;6.91;67.86
42169;BME280;27838;43.858;25.974;2023-02-28T03:03:30;102159.91;;;6.96;68.56
42169;BME280;27838;43.858;25.974;2023-02-28T03:06:00;102168.56;;;6.97;68.77
42169;BME280;27838;43.858;25.974;2023-02-28T03:08:29;102176.16;;;7.15;68.26
42169;BME280;27838;43.858;25.974;2023-02-28T03:11:03;102185.94;;;7.22;67.45
42169;BME280;27838;43.858;25.974;2023-02-28T03:13:46;102177.22;;;7.20;67.57
42169;BME280;27838;43.858;25.974;2023-02-28T03:16:40;102171.13;;;7.19;67.91
42169;BME280;27838;43.858;25.974;2023-02-28T03:22:40;102163.28;;;7.18;67.63
42169;BME280;27838;43.858;25.974;2023-02-28T03:25:20;102180.03;;;7.04;68.08
42169;BME280;27838;43.858;25.974;2023-02-28T03:28:09;102191.47;;;7.09;68.30
42169;BME280;27838;43.858;25.974;2023-02-28T03:30:58;102184.22;;;7.00;67.83
42169;BME280;27838;43.858;25.974;2023-02-28T03:33:38;102190.41;;;7.04;68.02
42169;BME280;27838;43.858;25.974;2023-02-28T03:36:10;102192.25;;;7.06;68.35
42169;BME280;27838;43.858;25.974;2023-02-28T03:38:43;102195.06;;;7.12;68.20
42169;BME280;27838;43.858;25.974;2023-02-28T03:41:18;102189.81;;;7.11;68.26
42169;BME280;27838;43.858;25.974;2023-02-28T03:43:55;102190.81;;;7.14;67.91
42169;BME280;27838;43.858;25.974;2023-02-28T03:46:25;102198.72;;;7.17;67.51
42169;BME280;27838;43.858;25.974;2023-02-28T03:48:57;102206.44;;;7.16;67.14
42169;BME280;27838;43.858;25.974;2023-02-28T03:51:27;102205.84;;;7.23;68.27
42169;BME280;27838;43.858;25.974;2023-02-28T03:53:57;102192.06;;;7.24;68.10
42169;BME280;27838;43.858;25.974;2023-02-28T03:56:46;102197.13;;;7.21;67.85
42169;BME280;27838;43.858;25.974;2023-02-28T03:59:22;102193.53;;;7.17;67.94
42169;BME280;27838;43.858;25.974;2023-02-28T04:01:52;102196.13;;;7.17;67.93
42169;BME280;27838;43.858;25.974;2023-02-28T04:04:20;102182.75;;;7.07;67.95
42169;BME280;27838;43.858;25.974;2023-02-28T04:06:52;102204.63;;;7.13;67.70
42169;BME280;27838;43.858;25.974;2023-02-28T04:09:19;102190.75;;;7.13;68.04
42169;BME280;27838;43.858;25.974;2023-02-28T04:11:50;102183.69;;;7.09;68.28
42169;BME280;27838;43.858;25.974;2023-02-28T04:14:17;102206.16;;;7.08;68.06
42169;BME280;27838;43.858;25.974;2023-02-28T04:16:44;102202.72;;;7.09;69.08
42169;BME280;27838;43.858;25.974;2023-02-28T04:19:12;102196.53;;;7.06;68.26
42169;BME280;27838;43.858;25.974;2023-02-28T04:21:45;102189.72;;;7.08;68.42
42169;BME280;27838;43.858;25.974;2023-02-28T04:24:14;102186.53;;;7.15;68.45
42169;BME280;27838;43.858;25.974;2023-02-28T04:26:44;102187.59;;;7.20;68.42
42169;BME280;27838;43.858;25.974;2023-02-28T04:29:13;102185.34;;;7.29;67.89
42169;BME280;27838;43.858;25.974;2023-02-28T04:31:40;102178.38;;;7.28;67.36
42169;BME280;27838;43.858;25.974;2023-02-28T04:34:07;102173.97;;;7.26;68.33
42169;BME280;27838;43.858;25.974;2023-02-28T04:36:33;102170.19;;;7.17;67.80
42169;BME280;27838;43.858;25.974;2023-02-28T04:39:00;102166.53;;;7.12;68.44
42169;BME280;27838;43.858;25.974;2023-02-28T04:41:26;102181.34;;;7.15;68.50
42169;BME280;27838;43.858;25.974;2023-02-28T04:43:53;102179.13;;;7.02;68.46
42169;BME280;27838;43.858;25.974;2023-02-28T04:46:21;102179.00;;;6.98;68.61
42169;BME280;27838;43.858;25.974;2023-02-28T04:48:48;102178.66;;;6.89;68.20
42169;BME280;27838;43.858;25.974;2023-02-28T04:51:16;102173.22;;;6.83;68.87
42169;BME280;27838;43.858;25.974;2023-02-28T04:53:43;102178.41;;;6.83;68.84
42169;BME280;27838;43.858;25.974;2023-02-28T04:56:15;102189.66;;;6.84;68.66
42169;BME280;27838;43.858;25.974;2023-02-28T04:58:42;102179.44;;;6.87;68.67
42169;BME280;27838;43.858;25.974;2023-02-28T05:01:20;102178.41;;;6.83;68.48
42169;BME280;27838;43.858;25.974;2023-02-28T05:03:48;102188.81;;;6.85;68.43
42169;BME280;27838;43.858;25.974;2023-02-28T05:06:15;102191.19;;;6.78;68.54
42169;BME280;27838;43.858;25.974;2023-02-28T05:08:42;102206.75;;;6.78;69.05
42169;BME280;27838;43.858;25.974;2023-02-28T05:11:30;102206.63;;;6.75;69.48
42169;BME280;27838;43.858;25.974;2023-02-28T05:14:10;102211.66;;;6.72;68.75
42169;BME280;27838;43.858;25.974;2023-02-28T05:16:37;102217.44;;;6.65;69.45
42169;BME280;27838;43.858;25.974;2023-02-28T05:19:04;102215.97;;;6.72;69.67
42169;BME280;27838;43.858;25.974;2023-02-28T05:21:36;102214.31;;;6.74;69.65
42169;BME280;27838;43.858;25.974;2023-02-28T05:24:11;102206.97;;;6.85;69.18
42169;BME280;27838;43.858;25.974;2023-02-28T05:26:40;102212.06;;;6.82;68.97
42169;BME280;27838;43.858;25.974;2023-02-28T05:29:07;102203.56;;;6.86;69.03
42169;BME280;27838;43.858;25.974;2023-02-28T05:31:35;102209.41;;;6.80;69.51
42169;BME280;27838;43.858;25.974;2023-02-28T05:34:02;102210.47;;;6.85;69.37
42169;BME280;27838;43.858;25.974;2023-02-28T05:36:29;102212.09;;;6.83;68.73
42169;BME280;27838;43.858;25.974;2023-02-28T05:38:56;102204.44;;;6.86;69.13
42169;BME280;27838;43.858;25.974;2023-02-28T05:41:22;102221.91;;;6.90;69.21
42169;BME280;27838;43.858;25.974;2023-02-28T05:43:49;102222.00;;;6.93;68.64
42169;BME280;27838;43.858;25.974;2023-02-28T05:46:16;102229.78;;;6.93;68.98
42169;BME280;27838;43.858;25.974;2023-02-28T05:48:46;102237.31;;;6.87;69.09
42169;BME280;27838;43.858;25.974;2023-02-28T05:51:13;102242.38;;;6.84;69.42
42169;BME280;27838;43.858;25.974;2023-02-28T05:53:39;102245.63;;;6.78;68.85
42169;BME280;27838;43.858;25.974;2023-02-28T05:56:06;102258.06;;;6.87;69.56
42169;BME280;27838;43.858;25.974;2023-02-28T05:58:32;102263.94;;;6.83;68.70
42169;BME280;27838;43.858;25.974;2023-02-28T06:01:01;102275.50;;;6.91;68.69
42169;BME280;27838;43.858;25.974;2023-02-28T06:03:44;102279.53;;;6.85;67.83
42169;BME280;27838;43.858;25.974;2023-02-28T06:06:11;102282.19;;;6.86;67.69
42169;BME280;27838;43.858;25.974;2023-02-28T06:08:37;102277.28;;;6.92;68.06
42169;BME280;27838;43.858;25.974;2023-02-28T06:11:04;102280.31;;;6.82;68.36
42169;BME280;27838;43.858;25.974;2023-02-28T06:13:32;102276.88;;;6.83;68.38
42169;BME280;27838;43.858;25.974;2023-02-28T06:16:00;102283.97;;;6.87;67.82
42169;BME280;27838;43.858;25.974;2023-02-28T06:18:27;102280.53;;;6.88;67.36
42169;BME280;27838;43.858;25.974;2023-02-28T06:20:54;102280.44;;;6.85;67.49
42169;BME280;27838;43.858;25.974;2023-02-28T06:23:21;102277.00;;;6.86;67.72
42169;BME280;27838;43.858;25.974;2023-02-28T06:25:48;102279.75;;;6.89;67.60
42169;BME280;27838;43.858;25.974;2023-02-28T06:28:15;102267.78;;;6.93;67.39
42169;BME280;27838;43.858;25.974;2023-02-28T06:30:41;102255.53;;;6.89;67.43
42169;BME280;27838;43.858;25.974;2023-02-28T06:33:08;102269.38;;;6.89;67.71
42169;BME280;27838;43.858;25.974;2023-02-28T06:35:35;102274.81;;;6.95;67.70
42169;BME280;27838;43.858;25.974;2023-02-28T06:38:01;102273.03;;;6.94;67.54
42169;BME280;27838;43.858;25.974;2023-02-28T06:40:28;102272.22;;;6.95;67.33
42169;BME280;27838;43.858;25.974;2023-02-28T06:42:57;102277.50;;;6.98;66.89
42169;BME280;27838;43.858;25.974;2023-02-28T06:45:23;102261.94;;;6.98;67.31
42169;BME280;27838;43.858;25.974;2023-02-28T06:47:51;102255.00;;;6.97;67.23
42169;BME280;27838;43.858;25.974;2023-02-28T06:50:18;102251.84;;;7.05;66.84
42169;BME280;27838;43.858;25.974;2023-02-28T06:52:45;102256.94;;;7.03;67.70
42169;BME280;27838;43.858;25.974;2023-02-28T06:55:12;102267.13;;;6.98;67.07
42169;BME280;27838;43.858;25.974;2023-02-28T06:57:38;102265.38;;;6.97;67.82
42169;BME280;27838;43.858;25.974;2023-02-28T07:00:08;102261.19;;;7.01;67.83
42169;BME280;27838;43.858;25.974;2023-02-28T07:02:36;102270.09;;;7.08;67.75
42169;BME280;27838;43.858;25.974;2023-02-28T07:05:04;102268.13;;;7.02;67.36
42169;BME280;27838;43.858;25.974;2023-02-28T07:07:30;102261.19;;;7.01;67.74
42169;BME280;27838;43.858;25.974;2023-02-28T07:09:57;102262.13;;;7.03;67.34
42169;BME280;27838;43.858;25.974;2023-02-28T07:12:24;102256.66;;;6.95;67.82
42169;BME280;27838;43.858;25.974;2023-02-28T07:14:50;102258.88;;;6.86;68.00
42169;BME280;27838;43.858;25.974;2023-02-28T07:17:17;102259.19;;;6.94;68.79
42169;BME280;27838;43.858;25.974;2023-02-28T07:19:43;102261.72;;;6.92;68.14
42169;BME280;27838;43.858;25.974;2023-02-28T07:22:10;102260.94;;;6.95;68.01
42169;BME280;27838;43.858;25.974;2023-02-28T07:24:36;102258.41;;;6.96;68.06
42169;BME280;27838;43.858;25.974;2023-02-28T07:27:03;102258.66;;;7.03;68.02
42169;BME280;27838;43.858;25.974;2023-02-28T07:29:30;102277.16;;;7.12;67.25
42169;BME280;27838;43.858;25.974;2023-02-28T07:31:56;102275.38;;;7.11;67.63
42169;BME280;27838;43.858;25.974;2023-02-28T07:34:23;102282.22;;;7.09;67.56
42169;BME280;27838;43.858;25.974;2023-02-28T07:36:53;102276.38;;;7.14;67.36
42169;BME280;27838;43.858;25.974;2023-02-28T07:39:21;102278.88;;;7.11;67.12
42169;BME280;27838;43.858;25.974;2023-02-28T07:41:47;102280.31;;;7.26;67.37
42169;BME280;27838;43.858;25.974;2023-02-28T07:44:14;102281.91;;;7.22;66.82
42169;BME280;27838;43.858;25.974;2023-02-28T07:46:41;102275.44;;;7.12;67.53
42169;BME280;27838;43.858;25.974;2023-02-28T07:49:07;102285.16;;;7.18;67.34
42169;BME280;27838;43.858;25.974;2023-02-28T07:51:34;102279.16;;;7.19;67.19
42169;BME280;27838;43.858;25.974;2023-02-28T07:54:00;102289.69;;;7.22;67.77
42169;BME280;27838;43.858;25.974;2023-02-28T07:56:27;102291.25;;;7.18;67.44
42169;BME280;27838;43.858;25.974;2023-02-28T07:58:53;102284.94;;;7.12;67.32
42169;BME280;27838;43.858;25.974;2023-02-28T08:01:20;102292.13;;;6.96;67.83
42169;BME280;27838;43.858;25.974;2023-02-28T08:03:47;102285.72;;;6.88;67.74
42169;BME280;27838;43.858;25.974;2023-02-28T08:06:19;102284.84;;;6.88;67.71
42169;BME280;27838;43.858;25.974;2023-02-28T08:08:46;102280.22;;;7.02;67.56
42169;BME280;27838;43.858;25.974;2023-02-28T08:11:13;102287.41;;;7.09;68.13
42169;BME280;27838;43.858;25.974;2023-02-28T08:13:40;102295.53;;;7.18;67.92
42169;BME280;27838;43.858;25.974;2023-02-28T08:16:07;102293.22;;;7.24;67.21
42169;BME280;27838;43.858;25.974;2023-02-28T08:18:34;102295.59;;;7.19;67.37
42169;BME280;27838;43.858;25.974;2023-02-28T08:21:06;102298.19;;;7.19;67.18
42169;BME280;27838;43.858;25.974;2023-02-28T08:23:33;102302.16;;;7.10;66.85
42169;BME280;27838;43.858;25.974;2023-02-28T08:26:00;102301.22;;;7.08;66.96
42169;BME280;27838;43.858;25.974;2023-02-28T08:28:26;102311.94;;;7.17;67.92
42169;BME280;27838;43.858;25.974;2023-02-28T08:30:53;102304.66;;;7.29;67.31
42169;BME280;27838;43.858;25.974;2023-02-28T08:33:21;102302.00;;;7.28;66.37
42169;BME280;27838;43.858;25.974;2023-02-28T08:35:48;102290.59;;;7.24;67.41
42169;BME280;27838;43.858;25.974;2023-02-28T08:38:14;102294.66;;;7.17;66.45
42169;BME280;27838;43.858;25.974;2023-02-28T08:40:41;102303.31;;;7.18;67.01
42169;BME280;27838;43.858;25.974;2023-02-28T08:43:07;102304.16;;;7.17;67.42
42169;BME280;27838;43.858;25.974;2023-02-28T08:45:34;102308.63;;;7.21;67.23
42169;BME280;27838;43.858;25.974;2023-02-28T08:48:00;102295.53;;;7.18;67.02
42169;BME280;27838;43.858;25.974;2023-02-28T08:50:27;102293.13;;;7.23;67.17
42169;BME280;27838;43.858;25.974;2023-02-28T08:52:53;102287.38;;;7.30;66.51
42169;BME280;27838;43.858;25.974;2023-02-28T08:55:20;102299.34;;;7.26;67.04
42169;BME280;27838;43.858;25.974;2023-02-28T08:57:46;102286.16;;;7.20;67.56
42169;BME280;27838;43.858;25.974;2023-02-28T09:00:13;102283.66;;;7.23;67.03
42169;BME280;27838;43.858;25.974;2023-02-28T09:02:40;102285.50;;;7.26;67.50
42169;BME280;27838;43.858;25.974;2023-02-28T09:05:09;102283.78;;;7.26;67.48
42169;BME280;27838;43.858;25.974;2023-02-28T09:07:35;102285.50;;;7.26;67.39
42169;BME280;27838;43.858;25.974;2023-02-28T09:10:02;102289.03;;;7.28;67.20
42169;BME280;27838;43.858;25.974;2023-02-28T09:12:33;102283.91;;;7.29;66.61
42169;BME280;27838;43.858;25.974;2023-02-28T09:15:00;102285.84;;;7.35;67.38
42169;BME280;27838;43.858;25.974;2023-02-28T09:17:26;102286.16;;;7.43;67.95
42169;BME280;27838;43.858;25.974;2023-02-28T09:19:53;102285.25;;;7.42;66.64
42169;BME280;27838;43.858;25.974;2023-02-28T09:22:22;102295.56;;;7.41;67.59
42169;BME280;27838;43.858;25.974;2023-02-28T09:24:49;102290.72;;;7.50;67.07
42169;BME280;27838;43.858;25.974;2023-02-28T09:27:15;102295.69;;;7.44;66.62
42169;BME280;27838;43.858;25.974;2023-02-28T09:29:42;102290.44;;;7.42;66.99
42169;BME280;27838;43.858;25.974;2023-02-28T09:32:08;102293.94;;;7.44;66.85
42169;BME280;27838;43.858;25.974;2023-02-28T09:34:35;102287.16;;;7.48;66.83
42169;BME280;27838;43.858;25.974;2023-02-28T09:37:02;102294.53;;;7.60;67.06
42169;BME280;27838;43.858;25.974;2023-02-28T09:39:28;102292.13;;;7.64;66.46
42169;BME280;27838;43.858;25.974;2023-02-28T09:41:56;102285.41;;;7.69;66.56
42169;BME280;27838;43.858;25.974;2023-02-28T09:44:33;102290.47;;;7.66;65.96
42169;BME280;27838;43.858;25.974;2023-02-28T09:47:10;102288.81;;;7.68;66.45
42169;BME280;27838;43.858;25.974;2023-02-28T09:49:43;102286.81;;;7.61;66.53
42169;BME280;27838;43.858;25.974;2023-02-28T09:52:18;102272.97;;;7.61;66.83
42169;BME280;27838;43.858;25.974;2023-02-28T09:54:45;102279.47;;;7.73;66.87
42169;BME280;27838;43.858;25.974;2023-02-28T10:00:10;102275.00;;;7.69;66.67
42169;BME280;27838;43.858;25.974;2023-02-28T10:05:20;102281.75;;;7.64;66.60
42169;BME280;27838;43.858;25.974;2023-02-28T10:10:28;102275.06;;;7.71;66.08
42169;BME280;27838;43.858;25.974;2023-02-28T10:12:59;102284.78;;;7.77;66.92
42169;BME280;27838;43.858;25.974;2023-02-28T10:15:30;102277.75;;;7.74;66.32
42169;BME280;27838;43.858;25.974;2023-02-28T10:18:01;102279.47;;;7.73;67.00
42169;BME280;27838;43.858;25.974;2023-02-28T10:20:32;102264.75;;;7.72;66.34
42169;BME280;27838;43.858;25.974;2023-02-28T10:23:25;102289.25;;;7.81;67.36
42169;BME280;27838;43.858;25.974;2023-02-28T10:25:59;102275.56;;;7.85;66.91
42169;BME280;27838;43.858;25.974;2023-02-28T10:28:26;102270.69;;;7.94;67.12
42169;BME280;27838;43.858;25.974;2023-02-28T10:30:56;102275.09;;;7.95;66.33
42169;BME280;27838;43.858;25.974;2023-02-28T10:33:30;102267.50;;;8.01;66.28
42169;BME280;27838;43.858;25.974;2023-02-28T10:35:58;102264.78;;;7.98;66.63
42169;BME280;27838;43.858;25.974;2023-02-28T10:38:34;102265.63;;;7.97;66.92
42169;BME280;27838;43.858;25.974;2023-02-28T10:41:09;102261.88;;;7.89;66.38
42169;BME280;27838;43.858;25.974;2023-02-28T10:43:38;102262.19;;;7.98;66.79
42169;BME280;27838;43.858;25.974;2023-02-28T10:48:38;102257.09;;;8.01;66.64
42169;BME280;27838;43.858;25.974;2023-02-28T10:51:08;102252.69;;;7.99;66.43
42169;BME280;27838;43.858;25.974;2023-02-28T10:53:51;102254.13;;;7.90;67.33
42169;BME280;27838;43.858;25.974;2023-02-28T10:56:25;102238.25;;;7.83;66.94
42169;BME280;27838;43.858;25.974;2023-02-28T10:58:57;102251.75;;;7.97;66.77
42169;BME280;27838;43.858;25.974;2023-02-28T11:03:56;102243.69;;;7.89;67.44
42169;BME280;27838;43.858;25.974;2023-02-28T11:06:30;102246.97;;;7.83;67.40
42169;BME280;27838;43.858;25.974;2023-02-28T11:09:03;102248.16;;;7.93;67.43
42169;BME280;27838;43.858;25.974;2023-02-28T11:11:42;102251.91;;;8.01;67.57
42169;BME280;27838;43.858;25.974;2023-02-28T11:14:27;102241.53;;;8.01;67.55
42169;BME280;27838;43.858;25.974;2023-02-28T11:16:55;102244.28;;;8.06;67.32
42169;BME280;27838;43.858;25.974;2023-02-28T11:19:26;102251.97;;;8.03;67.26
42169;BME280;27838;43.858;25.974;2023-02-28T11:21:57;102241.47;;;8.00;67.49
42169;BME280;27838;43.858;25.974;2023-02-28T11:24:35;102231.94;;;7.99;68.39
42169;BME280;27838;43.858;25.974;2023-02-28T11:27:02;102229.69;;;8.09;67.95
42169;BME280;27838;43.858;25.974;2023-02-28T11:29:31;102221.97;;;8.11;66.80
42169;BME280;27838;43.858;25.974;2023-02-28T11:32:19;102220.28;;;8.13;66.57
42169;BME280;27838;43.858;25.974;2023-02-28T11:34:47;102209.59;;;8.04;67.54
42169;BME280;27838;43.858;25.974;2023-02-28T11:37:27;102212.84;;;7.98;67.97
42169;BME280;27838;43.858;25.974;2023-02-28T11:39:55;102215.25;;;7.92;67.94
42169;BME280;27838;43.858;25.974;2023-02-28T11:53:48;102185.84;;;7.93;68.14
42169;BME280;27838;43.858;25.974;2023-02-28T11:56:37;102192.63;;;7.89;68.01
42169;BME280;27838;43.858;25.974;2023-02-28T12:07:22;102201.41;;;7.93;68.33
42169;BME280;27838;43.858;25.974;2023-02-28T12:13:01;102204.31;;;7.77;68.55
42169;BME280;27838;43.858;25.974;2023-02-28T12:15:47;102208.94;;;7.85;69.00
42169;BME280;27838;43.858;25.974;2023-02-28T12:27:14;102208.81;;;8.06;67.69
42169;BME280;27838;43.858;25.974;2023-02-28T12:32:38;102194.03;;;8.05;68.18
42169;BME280;27838;43.858;25.974;2023-02-28T12:35:17;102200.09;;;8.04;67.96
42169;BME280;27838;43.858;25.974;2023-02-28T12:40:47;102195.72;;;8.03;69.10
42169;BME280;27838;43.858;25.974;2023-02-28T12:43:16;102196.41;;;7.98;68.86
42169;BME280;27838;43.858;25.974;2023-02-28T12:45:53;102196.63;;;8.05;68.79
42169;BME280;27838;43.858;25.974;2023-02-28T12:48:37;102199.47;;;8.11;68.13
42169;BME280;27838;43.858;25.974;2023-02-28T12:51:07;102189.69;;;8.04;68.43
42169;BME280;27838;43.858;25.974;2023-02-28T12:53:48;102192.44;;;8.09;68.03
42169;BME280;27838;43.858;25.974;2023-02-28T12:59:15;102188.56;;;7.96;68.86
42169;BME280;27838;43.858;25.974;2023-02-28T13:10:04;102183.66;;;8.05;68.35
42169;BME280;27838;43.858;25.974;2023-02-28T13:12:33;102181.16;;;8.08;68.33
42169;BME280;27838;43.858;25.974;2023-02-28T13:15:29;102182.47;;;8.21;67.69
42169;BME280;27838;43.858;25.974;2023-02-28T13:18:00;102183.25;;;8.19;67.67
42169;BME280;27838;43.858;25.974;2023-02-28T13:20:34;102171.19;;;8.21;67.17
42169;BME280;27838;43.858;25.974;2023-02-28T13:23:02;102166.63;;;8.13;67.47
42169;BME280;27838;43.858;25.974;2023-02-28T13:28:02;102160.78;;;8.21;67.46
42169;BME280;27838;43.858;25.974;2023-02-28T13:33:28;102155.94;;;8.30;67.29
42169;BME280;27838;43.858;25.974;2023-02-28T13:41:42;102166.97;;;8.24;66.76
42169;BME280;27838;43.858;25.974;2023-02-28T13:44:14;102171.41;;;8.27;66.60
42169;BME280;27838;43.858;25.974;2023-02-28T13:49:26;102161.72;;;8.23;66.81
42169;BME280;27838;43.858;25.974;2023-02-28T14:05:27;102163.72;;;8.30;66.29
42169;BME280;27838;43.858;25.974;2023-02-28T14:07:58;102163.16;;;8.40;66.11
42169;BME280;27838;43.858;25.974;2023-02-28T14:11:03;102166.75;;;8.42;65.47
42169;BME280;27838;43.858;25.974;2023-02-28T14:13:40;102167.38;;;8.37;65.95
42169;BME280;27838;43.858;25.974;2023-02-28T14:16:11;102166.59;;;8.39;65.81
42169;BME280;27838;43.858;25.974;2023-02-28T14:18:51;102153.63;;;8.39;65.59
42169;BME280;27838;43.858;25.974;2023-02-28T14:24:13;102151.38;;;8.24;66.20
42169;BME280;27838;43.858;25.974;2023-02-28T14:27:04;102154.91;;;8.26;66.47
42169;BME280;27838;43.858;25.974;2023-02-28T14:29:59;102165.69;;;8.37;66.16
42169;BME280;27838;43.858;25.974;2023-02-28T14:32:33;102157.09;;;8.40;65.88
42169;BME280;27838;43.858;25.974;2023-02-28T14:37:48;102161.03;;;8.54;65.65
42169;BME280;27838;43.858;25.974;2023-02-28T14:40:19;102147.81;;;8.46;65.47
42169;BME280;27838;43.858;25.974;2023-02-28T14:42:57;102162.84;;;8.57;65.19
42169;BME280;27838;43.858;25.974;2023-02-28T14:45:24;102159.75;;;8.68;65.19
42169;BME280;27838;43.858;25.974;2023-02-28T14:47:53;102161.50;;;8.69;65.27
42169;BME280;27838;43.858;25.974;2023-02-28T14:50:20;102153.81;;;8.73;65.04
42169;BME280;27838;43.858;25.974;2023-02-28T14:52:47;102149.44;;;8.72;64.77
42169;BME280;27838;43.858;25.974;2023-02-28T14:55:16;102153.00;;;8.74;64.54
42169;BME280;27838;43.858;25.974;2023-02-28T14:57:56;102158.97;;;8.71;64.89
42169;BME280;27838;43.858;25.974;2023-02-28T15:00:33;102158.03;;;8.69;64.72